Time;durP1;ratioP1;P1;durP2;ratioP2;P2;SDS_P1;SDS_P2;PMS_P1;PMS_P2;Temp;Humidity;BMP_temperature;BMP_pressure;BME280_temperature;BME280_humidity;BME280_pressure;Samples;Min_cycle;Max_cycle;Signal;HPM_P1;HPM_P2
2023/09/21 00:01:12;;;;;;;7.68;3.67;;;;;;;;;;6109768;23;20515;-89
2023/09/21 00:04:17;;;;;;;13.05;4.07;;;;;;;;;;6109819;23;20683;-93
2023/09/21 00:07:24;;;;;;;9.93;4.72;;;;;;;;;;6108276;23;20276;-90
2023/09/21 00:10:29;;;;;;;12.20;5.53;;;;;;;;;;6108702;23;20178;-92
2023/09/21 00:13:39;;;;;;;8.38;4.90;;;;;;;;;;6108036;23;20669;-92
2023/09/21 00:16:44;;;;;;;10.45;5.68;;;;;;;;;;6108492;23;20178;-93
2023/09/21 00:19:51;;;;;;;13.48;5.85;;;;;;;;;;6108976;23;20169;-92
2023/09/21 00:22:55;;;;;;;10.90;5.72;;;;;;;;;;6108929;23;20177;-92
2023/09/21 00:26:07;;;;;;;14.00;6.60;;;;;;;;;;6109625;23;20182;-92
2023/09/21 00:29:16;;;;;;;14.05;6.53;;;;;;;;;;6107825;23;20238;-87
2023/09/21 00:32:21;;;;;;;16.17;6.18;;;;;;;;;;6108043;23;20177;-92
2023/09/21 00:35:27;;;;;;;12.30;5.63;;;;;;;;;;6107258;23;20194;-91
2023/09/21 00:38:32;;;;;;;13.23;5.90;;;;;;;;;;6109776;23;20637;-92
2023/09/21 00:41:37;;;;;;;11.65;5.82;;;;;;;;;;6109275;23;20266;-91
2023/09/21 00:44:45;;;;;;;11.52;6.05;;;;;;;;;;6108056;23;20166;-88
2023/09/21 00:47:51;;;;;;;12.48;5.70;;;;;;;;;;6109576;23;20158;-93
2023/09/21 00:50:58;;;;;;;14.00;5.57;;;;;;;;;;6108668;23;20231;-91
2023/09/21 00:54:07;;;;;;;13.27;5.35;;;;;;;;;;6108688;23;20201;-92
2023/09/21 00:57:13;;;;;;;9.18;4.53;;;;;;;;;;6108012;23;20177;-93
2023/09/21 01:00:25;;;;;;;11.90;4.88;;;;;;;;;;6106760;23;20182;-87
2023/09/21 01:03:31;;;;;;;12.50;5.10;;;;;;;;;;6112120;23;20189;-93
2023/09/21 01:06:38;;;;;;;11.20;5.22;;;;;;;;;;6120770;23;20204;-93
2023/09/21 01:09:45;;;;;;;10.93;5.47;;;;;;;;;;6120966;23;20523;-92
2023/09/21 01:12:51;;;;;;;11.38;5.10;;;;;;;;;;6120774;23;20601;-93
2023/09/21 01:16:05;;;;;;;6.95;4.30;;;;;;;;;;6120760;23;20609;-90
2023/09/21 01:19:11;;;;;;;9.82;4.80;;;;;;;;;;6119022;23;20173;-92
2023/09/21 01:22:17;;;;;;;9.70;4.43;;;;;;;;;;6119417;23;20165;-91
2023/09/21 01:25:27;;;;;;;11.68;4.75;;;;;;;;;;6124337;23;20251;-92
2023/09/21 01:28:37;;;;;;;13.65;4.38;;;;;;;;;;6139539;23;20169;-91
2023/09/21 01:31:43;;;;;;;10.80;5.10;;;;;;;;;;6124485;23;20174;-88
2023/09/21 01:34:48;;;;;;;18.55;4.72;;;;;;;;;;6119619;23;20197;-93
2023/09/21 01:37:54;;;;;;;9.40;4.70;;;;;;;;;;6120023;23;20165;-92
2023/09/21 01:41:03;;;;;;;11.27;4.28;;;;;;;;;;6119097;23;20499;-92
2023/09/21 01:44:09;;;;;;;10.07;4.80;;;;;;;;;;6118947;23;20173;-91
2023/09/21 01:47:15;;;;;;;10.00;4.72;;;;;;;;;;6119615;23;20185;-89
2023/09/21 01:50:21;;;;;;;9.70;4.43;;;;;;;;;;6122056;23;20212;-90
2023/09/21 01:53:26;;;;;;;8.60;4.20;;;;;;;;;;6123120;23;20193;-93
2023/09/21 01:56:33;;;;;;;8.93;4.45;;;;;;;;;;6120878;23;20507;-92
2023/09/21 01:59:38;;;;;;;8.93;4.05;;;;;;;;;;6122249;23;20233;-89
2023/09/21 02:02:43;;;;;;;7.78;4.05;;;;;;;;;;6119710;23;20177;-89
2023/09/21 02:05:48;;;;;;;6.13;3.75;;;;;;;;;;6121021;23;20164;-90
2023/09/21 02:08:53;;;;;;;8.57;4.00;;;;;;;;;;6120921;23;20173;-90
2023/09/21 02:12:00;;;;;;;9.68;3.53;;;;;;;;;;6120728;23;20172;-91
2023/09/21 02:15:09;;;;;;;7.18;4.10;;;;;;;;;;6120289;23;20196;-92
2023/09/21 02:18:15;;;;;;;5.55;3.60;;;;;;;;;;6120073;23;20173;-87
2023/09/21 02:21:20;;;;;;;11.07;4.22;;;;;;;;;;6120879;23;20157;-91
2023/09/21 02:24:26;;;;;;;10.25;4.53;;;;;;;;;;6120426;23;20185;-91
2023/09/21 02:27:34;;;;;;;20.73;4.15;;;;;;;;;;6121127;23;20643;-88
2023/09/21 02:30:40;;;;;;;14.23;4.55;;;;;;;;;;6121162;23;20173;-93
2023/09/21 02:33:45;;;;;;;22.23;5.22;;;;;;;;;;6119289;23;20172;-89
2023/09/21 02:36:52;;;;;;;11.27;5.35;;;;;;;;;;6119131;23;20165;-90
2023/09/21 02:39:58;;;;;;;8.73;4.25;;;;;;;;;;6120143;23;20176;-91
2023/09/21 02:43:07;;;;;;;14.10;4.70;;;;;;;;;;6120173;23;20176;-92
2023/09/21 02:46:13;;;;;;;8.43;4.28;;;;;;;;;;6118530;23;20173;-91
2023/09/21 02:49:18;;;;;;;17.83;4.28;;;;;;;;;;6119007;23;20173;-88
2023/09/21 02:52:23;;;;;;;37.97;5.63;;;;;;;;;;6118833;23;20226;-87
2023/09/21 02:55:29;;;;;;;10.40;4.18;;;;;;;;;;6122238;23;20326;-91
2023/09/21 02:58:36;;;;;;;21.52;4.47;;;;;;;;;;6122423;23;20181;-94
2023/09/21 03:01:41;;;;;;;15.52;4.55;;;;;;;;;;6123428;23;20172;-93
2023/09/21 03:04:48;;;;;;;14.30;4.47;;;;;;;;;;6111187;23;20650;-93
2023/09/21 03:07:54;;;;;;;11.75;4.53;;;;;;;;;;6107247;23;20178;-91
2023/09/21 03:10:59;;;;;;;9.35;4.60;;;;;;;;;;6107808;23;20166;-90
2023/09/21 03:14:06;;;;;;;9.40;4.22;;;;;;;;;;6107501;23;20174;-92
2023/09/21 03:17:11;;;;;;;8.30;4.53;;;;;;;;;;6108227;23;20170;-92
2023/09/21 03:20:28;;;;;;;12.95;4.70;;;;;;;;;;6108679;23;20166;-90
2023/09/21 03:23:34;;;;;;;8.45;4.13;;;;;;;;;;6108519;23;20255;-92
2023/09/21 03:26:39;;;;;;;15.43;4.55;;;;;;;;;;6111442;23;20158;-89
2023/09/21 03:29:46;;;;;;;12.63;4.38;;;;;;;;;;6109997;23;20307;-93
2023/09/21 03:32:51;;;;;;;12.48;4.13;;;;;;;;;;6109622;23;20677;-93
2023/09/21 03:35:56;;;;;;;10.80;4.07;;;;;;;;;;6110013;23;20190;-91
2023/09/21 03:39:08;;;;;;;10.82;4.88;;;;;;;;;;6108994;23;20168;-90
2023/09/21 03:42:14;;;;;;;17.23;4.82;;;;;;;;;;6108642;23;20178;-93
2023/09/21 03:45:25;;;;;;;18.67;5.10;;;;;;;;;;6110293;23;20183;-93
2023/09/21 03:48:35;;;;;;;15.82;4.95;;;;;;;;;;6108735;23;20245;-92
2023/09/21 03:51:41;;;;;;;13.95;5.13;;;;;;;;;;6108388;23;20232;-91
2023/09/21 03:54:47;;;;;;;25.27;5.18;;;;;;;;;;6107184;23;20701;-93
2023/09/21 03:57:51;;;;;;;25.92;5.53;;;;;;;;;;6109132;23;20222;-92
2023/09/21 04:01:04;;;;;;;27.52;6.05;;;;;;;;;;6110352;23;20191;-89
2023/09/21 04:04:17;;;;;;;22.08;6.00;;;;;;;;;;6109555;23;20621;-92
2023/09/21 04:07:23;;;;;;;26.60;5.93;;;;;;;;;;6108207;23;20174;-91
2023/09/21 04:10:29;;;;;;;13.52;5.55;;;;;;;;;;6108145;23;20195;-91
2023/09/21 04:13:34;;;;;;;37.88;6.70;;;;;;;;;;6109238;23;20174;-93
2023/09/21 04:16:40;;;;;;;20.20;5.75;;;;;;;;;;6109464;23;20648;-92
2023/09/21 04:19:46;;;;;;;15.40;5.30;;;;;;;;;;6106934;23;20170;-92
2023/09/21 04:22:52;;;;;;;15.88;5.35;;;;;;;;;;6108462;23;20182;-93
2023/09/21 04:25:57;;;;;;;16.55;5.18;;;;;;;;;;6110419;23;20161;-90
2023/09/21 04:29:03;;;;;;;18.50;5.13;;;;;;;;;;6108861;23;20162;-91
2023/09/21 04:32:10;;;;;;;14.00;5.18;;;;;;;;;;6108226;23;20243;-89
2023/09/21 04:35:17;;;;;;;11.20;5.30;;;;;;;;;;6127172;23;20201;-91
2023/09/21 04:38:22;;;;;;;13.02;4.97;;;;;;;;;;6108842;23;20203;-90
2023/09/21 04:41:30;;;;;;;10.85;5.38;;;;;;;;;;6109221;23;20166;-90
2023/09/21 04:44:35;;;;;;;10.27;4.35;;;;;;;;;;6110023;23;20182;-89
2023/09/21 04:47:42;;;;;;;15.00;4.93;;;;;;;;;;6108654;23;20557;-91
2023/09/21 04:50:48;;;;;;;9.95;4.97;;;;;;;;;;6109225;23;20174;-91
2023/09/21 04:53:53;;;;;;;8.18;4.82;;;;;;;;;;6109208;23;20214;-88
2023/09/21 04:56:59;;;;;;;7.60;4.68;;;;;;;;;;6106655;23;20169;-90
2023/09/21 05:00:11;;;;;;;13.05;4.70;;;;;;;;;;6108185;23;20178;-90
2023/09/21 05:03:26;;;;;;;12.05;5.22;;;;;;;;;;6116676;23;20165;-93
2023/09/21 05:06:31;;;;;;;8.88;4.78;;;;;;;;;;6123928;23;20221;-90
2023/09/21 05:09:36;;;;;;;9.75;5.13;;;;;;;;;;6123154;23;20177;-91
2023/09/21 05:12:41;;;;;;;15.75;5.53;;;;;;;;;;6119627;23;20173;-92
2023/09/21 05:15:48;;;;;;;16.92;5.30;;;;;;;;;;6124184;23;20237;-93
2023/09/21 05:18:58;;;;;;;12.13;5.72;;;;;;;;;;6119885;23;20242;-90
2023/09/21 05:22:04;;;;;;;11.65;5.95;;;;;;;;;;6117759;23;20173;-90
2023/09/21 05:25:11;;;;;;;9.43;4.80;;;;;;;;;;6121924;23;20621;-90
2023/09/21 05:28:19;;;;;;;10.82;4.30;;;;;;;;;;6118620;23;20634;-89
2023/09/21 05:31:24;;;;;;;7.13;3.47;;;;;;;;;;6120520;23;20188;-92
2023/09/21 05:34:32;;;;;;;6.57;4.20;;;;;;;;;;6120359;23;20172;-89
2023/09/21 05:37:38;;;;;;;8.25;5.05;;;;;;;;;;6119771;23;20237;-89
2023/09/21 05:40:44;;;;;;;17.98;4.55;;;;;;;;;;6121562;23;20180;-90
2023/09/21 05:43:50;;;;;;;9.73;5.03;;;;;;;;;;6116861;23;20188;-91
2023/09/21 05:46:55;;;;;;;9.55;4.63;;;;;;;;;;6119741;23;20181;-88
2023/09/21 05:50:03;;;;;;;11.85;4.43;;;;;;;;;;6121749;23;20173;-87
2023/09/21 05:53:08;;;;;;;14.60;4.40;;;;;;;;;;6119824;23;20197;-88
2023/09/21 05:56:13;;;;;;;10.80;4.45;;;;;;;;;;6122484;23;20192;-87
2023/09/21 05:59:19;;;;;;;10.95;4.63;;;;;;;;;;6127408;23;20177;-89
2023/09/21 06:02:25;;;;;;;12.85;5.65;;;;;;;;;;6124707;23;20237;-87
2023/09/21 06:05:32;;;;;;;13.07;5.60;;;;;;;;;;6107499;23;20194;-89
2023/09/21 06:08:38;;;;;;;31.67;5.60;;;;;;;;;;6110970;23;20186;-88
2023/09/21 06:11:44;;;;;;;17.10;5.07;;;;;;;;;;6105859;23;20174;-89
2023/09/21 06:14:53;;;;;;;14.80;5.20;;;;;;;;;;6106912;23;20586;-90
2023/09/21 06:18:00;;;;;;;22.88;4.78;;;;;;;;;;6106588;23;20173;-87
2023/09/21 06:21:07;;;;;;;9.38;4.78;;;;;;;;;;6107232;23;20178;-89
2023/09/21 06:24:12;;;;;;;11.05;4.65;;;;;;;;;;6110765;23;20170;-90
2023/09/21 06:27:18;;;;;;;10.32;3.65;;;;;;;;;;6106502;23;20174;-91
2023/09/21 06:30:23;;;;;;;7.25;4.03;;;;;;;;;;6110722;23;20249;-89
2023/09/21 06:33:28;;;;;;;9.23;4.30;;;;;;;;;;6110440;23;20173;-87
2023/09/21 06:36:52;;;;;;;7.75;4.28;;;;;;;;;;6112200;23;20194;-86
2023/09/21 06:40:00;;;;;;;6.88;3.50;;;;;;;;;;6115972;23;20212;-92
2023/09/21 06:43:07;;;;;;;7.22;3.35;;;;;;;;;;6109610;23;20638;-90
2023/09/21 06:46:14;;;;;;;8.00;3.83;;;;;;;;;;6117042;23;20158;-88
2023/09/21 06:49:19;;;;;;;6.47;3.38;;;;;;;;;;6109040;23;20228;-91
2023/09/21 06:52:24;;;;;;;7.80;5.22;;;;;;;;;;6110593;23;20177;-92
2023/09/21 06:55:31;;;;;;;7.60;3.72;;;;;;;;;;6109403;23;20296;-89
2023/09/21 06:58:37;;;;;;;5.78;3.20;;;;;;;;;;6108662;23;20511;-91
2023/09/21 07:01:42;;;;;;;8.55;3.72;;;;;;;;;;6109994;23;20174;-90
2023/09/21 07:04:47;;;;;;;7.38;3.38;;;;;;;;;;6106342;23;20249;-90
2023/09/21 07:07:54;;;;;;;11.10;4.00;;;;;;;;;;6110172;23;20248;-89
2023/09/21 07:11:00;;;;;;;8.68;4.70;;;;;;;;;;6110349;23;20177;-91
2023/09/21 07:14:05;;;;;;;11.88;4.85;;;;;;;;;;6108236;23;20199;-91
2023/09/21 07:17:12;;;;;;;7.28;4.93;;;;;;;;;;6109793;23;20190;-92
2023/09/21 07:20:23;;;;;;;6.72;4.55;;;;;;;;;;6109211;23;20177;-87
2023/09/21 07:23:28;;;;;;;6.80;4.53;;;;;;;;;;6107435;23;20294;-90
2023/09/21 07:26:35;;;;;;;7.88;4.80;;;;;;;;;;6108660;23;20177;-89
2023/09/21 07:29:39;;;;;;;10.63;4.43;;;;;;;;;;6108897;23;20185;-90
2023/09/21 07:32:45;;;;;;;7.03;4.15;;;;;;;;;;6109660;23;20222;-89
2023/09/21 07:35:51;;;;;;;7.03;4.57;;;;;;;;;;6110807;23;20198;-87
2023/09/21 07:38:57;;;;;;;7.05;3.85;;;;;;;;;;6117627;23;20222;-91
2023/09/21 07:42:04;;;;;;;11.60;4.40;;;;;;;;;;6110879;23;20165;-88
2023/09/21 07:45:10;;;;;;;8.25;4.20;;;;;;;;;;6111457;23;20266;-89
2023/09/21 07:48:16;;;;;;;8.98;4.00;;;;;;;;;;6112007;23;20505;-88
2023/09/21 07:51:21;;;;;;;7.82;4.15;;;;;;;;;;6112105;23;20174;-89
2023/09/21 07:54:27;;;;;;;7.50;4.38;;;;;;;;;;6111706;23;20165;-91
2023/09/21 07:57:35;;;;;;;12.88;4.80;;;;;;;;;;6109791;23;20181;-91
2023/09/21 08:00:42;;;;;;;7.00;3.72;;;;;;;;;;6110652;23;20169;-92
2023/09/21 08:03:50;;;;;;;8.60;4.22;;;;;;;;;;6123286;23;20195;-90
2023/09/21 08:06:56;;;;;;;5.63;3.85;;;;;;;;;;6127674;23;20173;-90
2023/09/21 08:10:03;;;;;;;7.63;3.67;;;;;;;;;;6125207;23;20161;-91
2023/09/21 08:13:11;;;;;;;7.97;4.10;;;;;;;;;;6127835;23;20174;-90
2023/09/21 08:16:19;;;;;;;7.45;3.53;;;;;;;;;;6125050;23;20196;-90
2023/09/21 08:19:25;;;;;;;6.07;3.90;;;;;;;;;;6125627;23;20241;-89
2023/09/21 08:22:30;;;;;;;6.18;3.53;;;;;;;;;;6125688;23;20190;-89
2023/09/21 08:25:38;;;;;;;7.20;3.85;;;;;;;;;;6128419;23;20197;-90
2023/09/21 08:28:47;;;;;;;4.85;3.10;;;;;;;;;;6127762;23;20168;-90
2023/09/21 08:31:53;;;;;;;9.05;3.53;;;;;;;;;;6128112;23;20177;-89
2023/09/21 08:35:08;;;;;;;4.78;2.95;;;;;;;;;;6122294;23;20169;-92
2023/09/21 08:38:17;;;;;;;4.90;2.83;;;;;;;;;;6120659;23;20174;-92
2023/09/21 08:41:23;;;;;;;8.02;2.97;;;;;;;;;;6121256;23;20170;-90
2023/09/21 08:44:29;;;;;;;4.57;2.60;;;;;;;;;;6121833;23;20231;-89
2023/09/21 08:47:34;;;;;;;4.57;2.70;;;;;;;;;;6124110;23;20205;-90
2023/09/21 08:50:40;;;;;;;4.82;2.30;;;;;;;;;;6124322;23;20176;-93
2023/09/21 08:53:50;;;;;;;5.78;2.88;;;;;;;;;;6123699;23;20245;-91
2023/09/21 08:56:56;;;;;;;6.25;2.58;;;;;;;;;;6124548;23;20258;-89
2023/09/21 09:00:06;;;;;;;4.80;2.40;;;;;;;;;;6123863;23;20172;-90
2023/09/21 09:03:11;;;;;;;4.78;2.90;;;;;;;;;;6122693;23;20172;-89
2023/09/21 09:06:16;;;;;;;6.00;2.67;;;;;;;;;;6121971;23;20169;-93
2023/09/21 09:12:41;;;;;;;5.63;2.05;;;;;;;;;;6124262;23;20210;-93
2023/09/21 09:15:48;;;;;;;3.63;2.10;;;;;;;;;;6123478;23;20183;-89
2023/09/21 09:18:53;;;;;;;5.47;2.15;;;;;;;;;;6123105;23;20169;-90
2023/09/21 09:21:58;;;;;;;4.63;2.10;;;;;;;;;;6121899;23;20651;-93
2023/09/21 09:25:05;;;;;;;3.67;1.98;;;;;;;;;;6124311;23;20155;-93
2023/09/21 09:28:10;;;;;;;3.90;1.98;;;;;;;;;;6122133;23;20164;-91
2023/09/21 09:31:18;;;;;;;4.78;1.98;;;;;;;;;;6121563;23;20176;-90
2023/09/21 09:34:24;;;;;;;3.58;2.20;;;;;;;;;;6121107;23;20217;-92
2023/09/21 09:37:32;;;;;;;4.57;2.17;;;;;;;;;;6122947;23;20200;-88
2023/09/21 09:40:39;;;;;;;6.03;2.45;;;;;;;;;;6122711;23;20172;-93
2023/09/21 09:43:45;;;;;;;4.70;2.08;;;;;;;;;;6122301;23;20436;-90
2023/09/21 09:46:56;;;;;;;7.80;2.63;;;;;;;;;;6121194;23;20165;-89
2023/09/21 09:50:03;;;;;;;5.72;2.42;;;;;;;;;;6121628;23;20172;-92
2023/09/21 09:53:10;;;;;;;7.00;2.65;;;;;;;;;;6121776;23;20220;-92
2023/09/21 09:56:19;;;;;;;5.00;2.50;;;;;;;;;;6124532;23;20312;-89
2023/09/21 09:59:28;;;;;;;4.90;2.22;;;;;;;;;;6125607;23;20244;-89
2023/09/21 10:02:36;;;;;;;5.35;2.33;;;;;;;;;;6124066;23;20242;-91
2023/09/21 10:05:42;;;;;;;4.15;2.63;;;;;;;;;;6123370;23;20168;-91
2023/09/21 10:08:48;;;;;;;8.45;2.50;;;;;;;;;;6125762;23;20166;-90
2023/09/21 10:11:56;;;;;;;4.10;2.35;;;;;;;;;;6124131;23;20173;-92
2023/09/21 10:15:03;;;;;;;4.18;2.42;;;;;;;;;;6124887;23;20172;-93
2023/09/21 10:18:10;;;;;;;4.30;2.28;;;;;;;;;;6125851;23;20211;-89
2023/09/21 10:21:26;;;;;;;4.57;2.20;;;;;;;;;;6123315;23;20172;-90
2023/09/21 10:24:31;;;;;;;5.22;2.10;;;;;;;;;;6124494;23;20632;-91
2023/09/21 10:48:21;;;;;;;4.60;2.08;;;;;;;;;;6085721;23;20665;-90
2023/09/21 10:51:28;;;;;;;5.18;1.88;;;;;;;;;;6128165;23;20157;-92
2023/09/21 10:54:34;;;;;;;6.32;1.90;;;;;;;;;;6123816;23;20236;-92
2023/09/21 10:57:40;;;;;;;5.45;2.65;;;;;;;;;;6122168;23;20200;-91
2023/09/21 11:00:45;;;;;;;5.03;2.50;;;;;;;;;;6125010;23;20172;-91
2023/09/21 11:03:52;;;;;;;5.72;2.60;;;;;;;;;;6122713;23;20168;-92
2023/09/21 11:07:05;;;;;;;4.97;2.30;;;;;;;;;;6123426;23;20213;-91
2023/09/21 11:10:12;;;;;;;3.28;2.20;;;;;;;;;;6122512;23;20165;-92
2023/09/21 11:13:18;;;;;;;4.65;1.80;;;;;;;;;;6123259;23;20173;-93
2023/09/21 11:16:26;;;;;;;5.13;2.53;;;;;;;;;;6126880;23;20177;-91
2023/09/21 11:19:34;;;;;;;6.00;2.50;;;;;;;;;;6126255;23;20620;-94
2023/09/21 11:22:41;;;;;;;6.07;2.10;;;;;;;;;;6126817;23;20201;-92
2023/09/21 11:25:49;;;;;;;4.10;1.95;;;;;;;;;;6124737;23;20167;-94
2023/09/21 11:28:58;;;;;;;5.90;2.05;;;;;;;;;;6123013;23;20172;-91
2023/09/21 11:32:05;;;;;;;5.50;2.08;;;;;;;;;;6124121;23;20197;-91
2023/09/21 11:35:12;;;;;;;4.50;2.40;;;;;;;;;;6125593;23;20176;-90
2023/09/21 11:38:18;;;;;;;5.35;1.95;;;;;;;;;;6125530;23;20200;-93
2023/09/21 11:41:24;;;;;;;4.75;1.95;;;;;;;;;;6128596;23;20176;-92
2023/09/21 11:44:30;;;;;;;3.38;1.90;;;;;;;;;;6129265;23;20164;-92
2023/09/21 11:47:38;;;;;;;4.53;1.88;;;;;;;;;;6131310;23;20149;-91
2023/09/21 11:50:46;;;;;;;6.90;2.47;;;;;;;;;;6127758;23;20185;-92
2023/09/21 11:53:52;;;;;;;7.28;2.50;;;;;;;;;;6126110;23;20221;-91
2023/09/21 11:56:56;;;;;;;5.55;2.10;;;;;;;;;;6125776;23;20213;-91
2023/09/21 12:00:13;;;;;;;10.00;2.30;;;;;;;;;;6122795;23;20251;-93
2023/09/21 12:03:23;;;;;;;6.32;2.28;;;;;;;;;;6128047;23;20173;-89
2023/09/21 12:06:33;;;;;;;5.15;2.10;;;;;;;;;;6127084;23;20176;-91
2023/09/21 12:09:40;;;;;;;5.97;2.03;;;;;;;;;;6124350;23;20246;-95
2023/09/21 12:12:46;;;;;;;5.38;1.92;;;;;;;;;;6123449;23;20168;-92
2023/09/21 12:15:55;;;;;;;4.68;2.10;;;;;;;;;;6124672;23;20176;-93
2023/09/21 12:19:00;;;;;;;2.80;1.75;;;;;;;;;;6123403;23;20172;-93
2023/09/21 12:22:08;;;;;;;5.15;2.03;;;;;;;;;;6124748;23;20163;-92
2023/09/21 12:25:14;;;;;;;4.50;1.80;;;;;;;;;;6125110;23;20164;-90
2023/09/21 12:28:22;;;;;;;3.60;1.88;;;;;;;;;;6126366;23;20164;-90
2023/09/21 12:31:28;;;;;;;4.60;1.90;;;;;;;;;;6125460;23;20168;-91
2023/09/21 12:34:35;;;;;;;3.95;2.22;;;;;;;;;;6128545;23;20193;-92
2023/09/21 12:37:45;;;;;;;3.60;1.50;;;;;;;;;;6125752;23;20286;-90
2023/09/21 12:40:52;;;;;;;3.03;1.77;;;;;;;;;;6126207;23;20208;-90
2023/09/21 12:44:05;;;;;;;6.07;2.10;;;;;;;;;;6124038;23;20168;-90
2023/09/21 12:47:11;;;;;;;5.85;2.03;;;;;;;;;;6124634;23;20246;-88
2023/09/21 12:50:22;;;;;;;7.05;1.90;;;;;;;;;;6124258;23;20204;-93
2023/09/21 12:53:31;;;;;;;4.30;1.70;;;;;;;;;;6122582;23;20180;-90
2023/09/21 12:56:37;;;;;;;4.45;1.95;;;;;;;;;;6124437;23;20193;-91
2023/09/21 12:59:44;;;;;;;4.65;1.75;;;;;;;;;;6123548;23;20955;-92
2023/09/21 13:02:49;;;;;;;5.25;1.95;;;;;;;;;;6124091;23;20172;-92
2023/09/21 13:05:55;;;;;;;5.45;2.13;;;;;;;;;;6127638;23;20193;-93
2023/09/21 13:09:02;;;;;;;3.03;1.65;;;;;;;;;;6127660;23;20180;-92
2023/09/21 13:12:08;;;;;;;4.78;1.90;;;;;;;;;;6141497;23;20176;-92
2023/09/21 13:15:15;;;;;;;2.33;1.50;;;;;;;;;;6127955;23;20165;-94
2023/09/21 13:18:21;;;;;;;5.13;1.80;;;;;;;;;;6125879;23;20196;-92
2023/09/21 13:21:27;;;;;;;4.20;1.75;;;;;;;;;;6126486;23;20168;-93
2023/09/21 13:24:39;;;;;;;2.53;1.60;;;;;;;;;;6127797;23;20186;-92
2023/09/21 13:27:44;;;;;;;4.60;1.63;;;;;;;;;;6124431;23;20181;-95
2023/09/21 13:30:49;;;;;;;5.57;3.05;;;;;;;;;;6126962;23;20188;-92
2023/09/21 13:33:55;;;;;;;6.85;2.20;;;;;;;;;;6124181;23;20168;-92
2023/09/21 13:37:01;;;;;;;3.28;1.83;;;;;;;;;;6125358;23;20169;-93
2023/09/21 13:40:10;;;;;;;5.82;1.90;;;;;;;;;;6125297;23;20233;-94
2023/09/21 13:43:15;;;;;;;5.35;2.22;;;;;;;;;;6125312;23;20156;-96
2023/09/21 13:46:21;;;;;;;3.45;1.65;;;;;;;;;;6125074;23;20169;-92
2023/09/21 13:49:33;;;;;;;5.20;1.50;;;;;;;;;;6112699;23;20271;-93
2023/09/21 13:52:39;;;;;;;4.65;2.03;;;;;;;;;;6126696;23;20157;-93
2023/09/21 13:55:46;;;;;;;2.88;1.70;;;;;;;;;;6109961;23;20153;-93
2023/09/21 13:58:53;;;;;;;3.70;1.70;;;;;;;;;;6110694;23;20185;-93
2023/09/21 14:02:00;;;;;;;4.80;1.55;;;;;;;;;;6111105;23;20194;-93
2023/09/21 14:05:06;;;;;;;6.93;1.80;;;;;;;;;;6110705;23;20173;-92
2023/09/21 14:08:11;;;;;;;7.20;1.60;;;;;;;;;;6107648;23;20165;-92
2023/09/21 14:11:18;;;;;;;2.78;1.42;;;;;;;;;;6109168;23;20677;-93
2023/09/21 14:14:25;;;;;;;4.43;1.70;;;;;;;;;;6109854;23;20346;-93
2023/09/21 14:20:50;;;;;;;4.65;1.73;;;;;;;;;;6109433;23;20233;-94
2023/09/21 14:23:55;;;;;;;4.03;1.60;;;;;;;;;;6109924;23;20464;-94
2023/09/21 14:27:02;;;;;;;4.25;1.80;;;;;;;;;;6109420;23;20173;-94
2023/09/21 14:30:09;;;;;;;2.53;1.40;;;;;;;;;;6110033;23;20174;-91
2023/09/21 14:33:18;;;;;;;6.35;1.77;;;;;;;;;;6114437;23;20201;-93
2023/09/21 14:36:24;;;;;;;5.18;1.90;;;;;;;;;;6112269;23;20243;-92
2023/09/21 14:39:30;;;;;;;2.80;1.58;;;;;;;;;;6112991;23;20218;-92
2023/09/21 14:42:39;;;;;;;4.07;2.00;;;;;;;;;;6113119;23;20237;-93
2023/09/21 14:45:45;;;;;;;6.22;1.40;;;;;;;;;;6109490;23;20158;-94
2023/09/21 14:48:50;;;;;;;3.83;1.77;;;;;;;;;;6122071;23;20675;-94
2023/09/21 14:51:55;;;;;;;3.88;1.70;;;;;;;;;;6125090;23;20288;-93
2023/09/21 14:55:00;;;;;;;3.65;1.60;;;;;;;;;;6124120;23;20168;-92
2023/09/21 14:58:06;;;;;;;3.63;1.48;;;;;;;;;;6122345;23;20196;-92
2023/09/21 15:01:12;;;;;;;4.20;1.45;;;;;;;;;;6124355;23;20169;-93
2023/09/21 15:04:21;;;;;;;3.70;1.70;;;;;;;;;;6123891;23;20197;-94
2023/09/21 15:07:27;;;;;;;3.55;1.60;;;;;;;;;;6126935;23;20294;-92
2023/09/21 15:10:32;;;;;;;6.50;1.70;;;;;;;;;;6124026;23;20246;-92
2023/09/21 15:13:39;;;;;;;3.75;1.80;;;;;;;;;;6126211;23;20176;-93
2023/09/21 15:16:45;;;;;;;3.53;1.73;;;;;;;;;;6125178;23;20220;-91
2023/09/21 15:19:51;;;;;;;4.68;1.90;;;;;;;;;;6125905;23;20267;-92
2023/09/21 15:22:56;;;;;;;4.82;1.80;;;;;;;;;;6124274;23;20196;-94
2023/09/21 15:26:02;;;;;;;8.38;4.30;;;;;;;;;;6126356;23;20247;-91
2023/09/21 15:29:17;;;;;;;5.78;1.75;;;;;;;;;;6125611;23;20248;-91
2023/09/21 15:32:23;;;;;;;4.50;2.00;;;;;;;;;;6125335;23;20648;-91
2023/09/21 15:35:28;;;;;;;2.67;1.52;;;;;;;;;;6123460;23;20164;-93
2023/09/21 15:38:35;;;;;;;5.43;1.83;;;;;;;;;;6124640;23;20196;-93
2023/09/21 15:41:41;;;;;;;7.00;1.55;;;;;;;;;;6125013;23;20209;-93
2023/09/21 15:44:48;;;;;;;8.15;1.83;;;;;;;;;;6128110;23;20188;-93
2023/09/21 15:47:54;;;;;;;7.63;1.70;;;;;;;;;;6127128;23;20181;-89
2023/09/21 15:50:59;;;;;;;2.15;1.55;;;;;;;;;;6140328;23;20232;-89
2023/09/21 15:54:06;;;;;;;6.03;2.10;;;;;;;;;;6124236;23;20225;-90
2023/09/21 15:57:12;;;;;;;3.00;1.88;;;;;;;;;;6108249;23;20172;-89
2023/09/21 16:00:18;;;;;;;7.95;2.10;;;;;;;;;;6125233;23;20173;-92
2023/09/21 16:03:24;;;;;;;6.25;1.73;;;;;;;;;;6124498;23;20172;-89
2023/09/21 16:06:37;;;;;;;3.80;1.60;;;;;;;;;;6127848;23;20213;-89
2023/09/21 16:09:43;;;;;;;6.03;1.90;;;;;;;;;;6140777;23;20164;-91
2023/09/21 16:12:49;;;;;;;9.45;2.10;;;;;;;;;;6124458;23;20846;-89
2023/09/21 16:15:57;;;;;;;5.60;1.67;;;;;;;;;;6125288;23;20176;-91
2023/09/21 16:19:02;;;;;;;8.98;3.92;;;;;;;;;;6120539;23;20665;-89
2023/09/21 16:22:07;;;;;;;6.13;2.10;;;;;;;;;;6125470;23;20177;-91
2023/09/21 16:25:13;;;;;;;6.45;2.10;;;;;;;;;;6127021;23;20211;-90
2023/09/21 16:28:18;;;;;;;5.00;2.10;;;;;;;;;;6122890;23;20221;-93
2023/09/21 16:31:25;;;;;;;8.88;2.20;;;;;;;;;;6123985;23;20165;-91
2023/09/21 16:34:31;;;;;;;7.90;2.22;;;;;;;;;;6126957;23;20205;-90
2023/09/21 16:37:36;;;;;;;5.35;2.40;;;;;;;;;;6124254;23;20302;-90
2023/09/21 16:40:42;;;;;;;3.15;1.95;;;;;;;;;;6122806;23;20168;-90
2023/09/21 16:43:48;;;;;;;5.57;2.05;;;;;;;;;;6130865;23;20181;-92
2023/09/21 16:47:05;;;;;;;4.40;2.08;;;;;;;;;;6128498;23;20174;-91
2023/09/21 16:50:14;;;;;;;6.88;1.95;;;;;;;;;;6115870;23;20189;-90
2023/09/21 16:53:20;;;;;;;7.78;2.47;;;;;;;;;;6114174;23;20194;-92
2023/09/21 16:56:28;;;;;;;5.82;2.47;;;;;;;;;;6114334;23;20173;-90
2023/09/21 16:59:34;;;;;;;9.85;2.63;;;;;;;;;;6113689;23;20198;-92
2023/09/21 17:02:41;;;;;;;9.75;2.90;;;;;;;;;;6113412;23;20186;-92
2023/09/21 17:05:47;;;;;;;5.47;2.90;;;;;;;;;;6114051;23;20177;-92
2023/09/21 17:08:52;;;;;;;10.05;3.10;;;;;;;;;;6112618;23;20223;-92
2023/09/21 17:15:18;;;;;;;8.50;3.67;;;;;;;;;;6112658;23;20194;-92
2023/09/21 17:40:13;;;;;;;11.45;2.90;;;;;;;;;;6047209;23;20756;-88
2023/09/21 17:43:24;;;;;;;6.68;2.60;;;;;;;;;;6063485;23;20193;-91
2023/09/21 17:46:34;;;;;;;6.50;2.60;;;;;;;;;;6063612;23;20151;-88
2023/09/21 17:49:42;;;;;;;4.43;2.60;;;;;;;;;;6063414;23;20168;-90
2023/09/21 17:52:49;;;;;;;4.93;2.65;;;;;;;;;;6040144;23;20179;-87
2023/09/21 17:55:56;;;;;;;6.63;2.33;;;;;;;;;;6050991;23;20171;-93
2023/09/21 17:59:01;;;;;;;6.00;2.88;;;;;;;;;;6050071;23;20241;-90
2023/09/21 18:02:06;;;;;;;4.80;2.88;;;;;;;;;;6054651;23;20159;-88
2023/09/21 18:05:12;;;;;;;7.47;2.95;;;;;;;;;;6055716;23;20180;-92
2023/09/21 18:08:18;;;;;;;8.82;3.25;;;;;;;;;;6052429;23;20171;-92
2023/09/21 18:11:24;;;;;;;5.32;2.83;;;;;;;;;;6056702;23;20224;-90
2023/09/21 18:14:30;;;;;;;10.85;3.33;;;;;;;;;;6053471;23;20628;-91
2023/09/21 18:17:36;;;;;;;9.18;3.15;;;;;;;;;;6055036;23;20178;-89
2023/09/21 18:20:41;;;;;;;8.20;3.67;;;;;;;;;;6056861;23;20220;-93
2023/09/21 18:23:56;;;;;;;10.05;3.20;;;;;;;;;;6056668;23;20175;-95
2023/09/21 18:27:03;;;;;;;7.07;2.70;;;;;;;;;;6055049;23;20233;-89
2023/09/21 18:30:09;;;;;;;9.05;3.50;;;;;;;;;;6055550;23;20175;-93
2023/09/21 18:33:14;;;;;;;5.97;3.13;;;;;;;;;;6055255;23;20184;-94
2023/09/21 18:36:21;;;;;;;6.18;3.50;;;;;;;;;;6085933;23;20170;-90
2023/09/21 18:39:26;;;;;;;5.93;3.22;;;;;;;;;;6084445;23;20194;-92
2023/09/21 18:42:34;;;;;;;10.57;3.70;;;;;;;;;;6083239;23;20215;-90
2023/09/21 18:45:40;;;;;;;9.75;3.97;;;;;;;;;;6084534;23;20196;-91
2023/09/21 18:48:51;;;;;;;11.27;4.22;;;;;;;;;;6086245;23;21014;-91
2023/09/21 18:51:57;;;;;;;12.23;3.50;;;;;;;;;;6082625;23;20170;-91
2023/09/21 18:55:04;;;;;;;10.55;3.40;;;;;;;;;;6083279;23;20174;-91
2023/09/21 18:58:11;;;;;;;8.77;3.50;;;;;;;;;;6081984;23;20159;-89
2023/09/21 19:01:17;;;;;;;9.93;4.03;;;;;;;;;;6081497;23;20170;-93
2023/09/21 19:04:22;;;;;;;10.95;4.07;;;;;;;;;;6083224;23;20626;-91
2023/09/21 19:07:28;;;;;;;8.75;4.20;;;;;;;;;;6086179;23;20174;-94
2023/09/21 19:10:34;;;;;;;11.13;4.30;;;;;;;;;;6083756;23;20196;-89
2023/09/21 19:13:42;;;;;;;10.43;3.92;;;;;;;;;;6083235;23;20174;-89
2023/09/21 19:16:51;;;;;;;11.00;4.15;;;;;;;;;;6083227;23;20174;-92
2023/09/21 19:19:56;;;;;;;11.93;4.00;;;;;;;;;;6080822;23;20198;-93
2023/09/21 19:23:05;;;;;;;10.88;4.32;;;;;;;;;;6082813;23;20170;-92
2023/09/21 19:26:14;;;;;;;12.27;4.65;;;;;;;;;;6082776;23;20179;-91